sensor_id;sensor_type;location;lat;lon;timestamp;pressure;altitude;pressure_sealevel;temperature;humidity
47054;BME280;32811;52.382;5.270;2023-12-04T00:01:46;101349.75;;;-0.48;100.00
47054;BME280;32811;52.382;5.270;2023-12-04T00:04:14;101343.22;;;-0.45;100.00
47054;BME280;32811;52.382;5.270;2023-12-04T00:06:41;101357.72;;;-0.42;100.00
47054;BME280;32811;52.382;5.270;2023-12-04T00:09:08;101377.28;;;-0.25;100.00
47054;BME280;32811;52.382;5.270;2023-12-04T00:11:35;101377.63;;;-0.18;100.00
47054;BME280;32811;52.382;5.270;2023-12-04T00:14:02;101355.44;;;-0.37;100.00
47054;BME280;32811;52.382;5.270;2023-12-04T00:16:29;101354.19;;;-0.29;100.00
47054;BME280;32811;52.382;5.270;2023-12-04T00:18:55;101366.53;;;-0.21;100.00
47054;BME280;32811;52.382;5.270;2023-12-04T00:21:22;101336.81;;;-0.38;100.00
47054;BME280;32811;52.382;5.270;2023-12-04T00:23:49;101343.88;;;-0.32;100.00
47054;BME280;32811;52.382;5.270;2023-12-04T00:26:16;101327.44;;;-0.39;100.00
47054;BME280;32811;52.382;5.270;2023-12-04T00:28:43;101364.94;;;-0.18;100.00
47054;BME280;32811;52.382;5.270;2023-12-04T00:31:10;101365.66;;;-0.21;100.00
47054;BME280;32811;52.382;5.270;2023-12-04T00:33:39;101364.94;;;-0.18;100.00
47054;BME280;32811;52.382;5.270;2023-12-04T00:36:18;101351.50;;;-0.17;100.00
47054;BME280;32811;52.382;5.270;2023-12-04T00:38:54;101357.34;;;-0.18;100.00
47054;BME280;32811;52.382;5.270;2023-12-04T00:41:22;101342.56;;;-0.26;100.00
47054;BME280;32811;52.382;5.270;2023-12-04T00:43:53;101345.91;;;-0.27;100.00
47054;BME280;32811;52.382;5.270;2023-12-04T00:46:20;101346.69;;;-0.28;100.00
47054;BME280;32811;52.382;5.270;2023-12-04T00:48:47;101346.94;;;-0.23;100.00
47054;BME280;32811;52.382;5.270;2023-12-04T00:51:39;101346.94;;;-0.23;100.00
47054;BME280;32811;52.382;5.270;2023-12-04T00:54:11;101338.47;;;-0.24;100.00
47054;BME280;32811;52.382;5.270;2023-12-04T00:56:42;101336.88;;;-0.22;100.00
47054;BME280;32811;52.382;5.270;2023-12-04T00:59:14;101341.09;;;-0.22;100.00
47054;BME280;32811;52.382;5.270;2023-12-04T01:01:41;101328.31;;;-0.24;100.00
47054;BME280;32811;52.382;5.270;2023-12-04T01:04:21;101337.84;;;-0.19;100.00
47054;BME280;32811;52.382;5.270;2023-12-04T01:06:48;101336.28;;;-0.17;100.00
47054;BME280;32811;52.382;5.270;2023-12-04T01:09:14;101334.50;;;-0.18;100.00
47054;BME280;32811;52.382;5.270;2023-12-04T01:11:43;101326.84;;;-0.20;100.00
47054;BME280;32811;52.382;5.270;2023-12-04T01:14:11;101320.97;;;-0.19;100.00
47054;BME280;32811;52.382;5.270;2023-12-04T01:16:53;101322.69;;;-0.18;100.00
47054;BME280;32811;52.382;5.270;2023-12-04T01:19:41;101322.78;;;-0.16;100.00
47054;BME280;32811;52.382;5.270;2023-12-04T01:22:35;101316.13;;;-0.14;100.00
47054;BME280;32811;52.382;5.270;2023-12-04T01:25:26;101294.00;;;-0.17;100.00
47054;BME280;32811;52.382;5.270;2023-12-04T01:28:18;101301.72;;;-0.15;100.00
47054;BME280;32811;52.382;5.270;2023-12-04T01:31:06;101304.16;;;-0.17;100.00
47054;BME280;32811;52.382;5.270;2023-12-04T01:33:37;101304.41;;;-0.12;100.00
47054;BME280;32811;52.382;5.270;2023-12-04T01:36:12;101300.75;;;-0.17;100.00
47054;BME280;32811;52.382;5.270;2023-12-04T01:38:56;101296.53;;;-0.17;100.00
47054;BME280;32811;52.382;5.270;2023-12-04T01:41:43;101296.72;;;-0.14;100.00
47054;BME280;32811;52.382;5.270;2023-12-04T01:44:10;101297.97;;;-0.22;100.00
47054;BME280;32811;52.382;5.270;2023-12-04T01:46:41;101290.16;;;-0.25;100.00
47054;BME280;32811;52.382;5.270;2023-12-04T01:49:08;101282.50;;;-0.27;100.00
47054;BME280;32811;52.382;5.270;2023-12-04T01:51:38;101297.31;;;-0.18;100.00
47054;BME280;32811;52.382;5.270;2023-12-04T01:54:06;101292.25;;;-0.18;100.00
47054;BME280;32811;52.382;5.270;2023-12-04T01:56:34;101293.91;;;-0.18;100.00
47054;BME280;32811;52.382;5.270;2023-12-04T01:59:02;101282.66;;;-0.24;100.00
47054;BME280;32811;52.382;5.270;2023-12-04T02:01:30;101286.31;;;-0.18;100.00
47054;BME280;32811;52.382;5.270;2023-12-04T02:04:01;101283.72;;;-0.20;100.00
47054;BME280;32811;52.382;5.270;2023-12-04T02:06:35;101272.84;;;-0.17;100.00
47054;BME280;32811;52.382;5.270;2023-12-04T02:09:07;101284.91;;;-0.13;100.00
47054;BME280;32811;52.382;5.270;2023-12-04T02:11:41;101278.63;;;-0.20;100.00
47054;BME280;32811;52.382;5.270;2023-12-04T02:14:26;101271.88;;;-0.19;100.00
47054;BME280;32811;52.382;5.270;2023-12-04T02:16:57;101270.94;;;-0.22;100.00
47054;BME280;32811;52.382;5.270;2023-12-04T02:19:26;101260.94;;;-0.18;100.00
47054;BME280;32811;52.382;5.270;2023-12-04T02:21:56;101263.41;;;-0.20;100.00
47054;BME280;32811;52.382;5.270;2023-12-04T02:24:24;101249.53;;;-0.27;100.00
47054;BME280;32811;52.382;5.270;2023-12-04T02:26:58;101252.31;;;-0.22;100.00
47054;BME280;32811;52.382;5.270;2023-12-04T02:29:32;101246.97;;;-0.27;100.00
47054;BME280;32811;52.382;5.270;2023-12-04T02:32:05;101243.03;;;-0.22;100.00
47054;BME280;32811;52.382;5.270;2023-12-04T02:34:37;101242.06;;;-0.24;100.00
47054;BME280;32811;52.382;5.270;2023-12-04T02:37:06;101239.69;;;-0.21;100.00
47054;BME280;32811;52.382;5.270;2023-12-04T02:39:36;101225.97;;;-0.24;100.00
47054;BME280;32811;52.382;5.270;2023-12-04T02:42:04;101218.03;;;-0.30;100.00
47054;BME280;32811;52.382;5.270;2023-12-04T02:44:34;101218.13;;;-0.29;100.00
47054;BME280;32811;52.382;5.270;2023-12-04T02:47:09;101228.56;;;-0.23;100.00
47054;BME280;32811;52.382;5.270;2023-12-04T02:49:37;101226.03;;;-0.23;100.00
47054;BME280;32811;52.382;5.270;2023-12-04T02:52:04;101216.00;;;-0.21;100.00
47054;BME280;32811;52.382;5.270;2023-12-04T02:54:32;101212.59;;;-0.22;100.00
47054;BME280;32811;52.382;5.270;2023-12-04T02:57:01;101211.72;;;-0.22;100.00
47054;BME280;32811;52.382;5.270;2023-12-04T02:59:30;101203.88;;;-0.27;100.00
47054;BME280;32811;52.382;5.270;2023-12-04T03:02:05;101214.06;;;-0.25;100.00
47054;BME280;32811;52.382;5.270;2023-12-04T03:04:37;101188.22;;;-0.34;100.00
47054;BME280;32811;52.382;5.270;2023-12-04T03:07:05;101199.41;;;-0.31;100.00
47054;BME280;32811;52.382;5.270;2023-12-04T03:09:40;101202.34;;;-0.23;100.00
47054;BME280;32811;52.382;5.270;2023-12-04T03:12:16;101185.94;;;-0.30;100.00
47054;BME280;32811;52.382;5.270;2023-12-04T03:14:50;101194.41;;;-0.29;100.00
47054;BME280;32811;52.382;5.270;2023-12-04T03:17:19;101192.91;;;-0.26;100.00
47054;BME280;32811;52.382;5.270;2023-12-04T03:19:46;101177.34;;;-0.32;100.00
47054;BME280;32811;52.382;5.270;2023-12-04T03:22:15;101180.00;;;-0.30;100.00
47054;BME280;32811;52.382;5.270;2023-12-04T03:24:42;101162.84;;;-0.34;100.00
47054;BME280;32811;52.382;5.270;2023-12-04T03:27:12;101170.72;;;-0.30;100.00
47054;BME280;32811;52.382;5.270;2023-12-04T03:29:40;101174.19;;;-0.28;100.00
47054;BME280;32811;52.382;5.270;2023-12-04T03:32:06;101165.63;;;-0.30;100.00
47054;BME280;32811;52.382;5.270;2023-12-04T03:34:34;101165.00;;;-0.26;100.00
47054;BME280;32811;52.382;5.270;2023-12-04T03:37:01;101152.19;;;-0.29;100.00
47054;BME280;32811;52.382;5.270;2023-12-04T03:39:27;101158.13;;;-0.28;100.00
47054;BME280;32811;52.382;5.270;2023-12-04T03:41:55;101158.97;;;-0.28;100.00
47054;BME280;32811;52.382;5.270;2023-12-04T03:44:22;101134.19;;;-0.33;100.00
47054;BME280;32811;52.382;5.270;2023-12-04T03:46:52;101136.97;;;-0.29;100.00
47054;BME280;32811;52.382;5.270;2023-12-04T03:49:19;101141.38;;;-0.25;100.00
47054;BME280;32811;52.382;5.270;2023-12-04T03:51:49;101142.50;;;-0.19;100.00
47054;BME280;32811;52.382;5.270;2023-12-04T03:54:16;101132.19;;;-0.23;100.00
47054;BME280;32811;52.382;5.270;2023-12-04T03:56:42;101124.56;;;-0.23;100.00
47054;BME280;32811;52.382;5.270;2023-12-04T03:59:11;101124.81;;;-0.18;100.00
47054;BME280;32811;52.382;5.270;2023-12-04T04:01:39;101123.72;;;-0.23;100.00
47054;BME280;32811;52.382;5.270;2023-12-04T04:04:10;101118.41;;;-0.28;100.00
47054;BME280;32811;52.382;5.270;2023-12-04T04:06:41;101108.16;;;-0.29;100.00
47054;BME280;32811;52.382;5.270;2023-12-04T04:09:08;101115.34;;;-0.22;100.00
47054;BME280;32811;52.382;5.270;2023-12-04T04:11:35;101107.53;;;-0.25;100.00
47054;BME280;32811;52.382;5.270;2023-12-04T04:14:02;101104.13;;;-0.26;100.00
47054;BME280;32811;52.382;5.270;2023-12-04T04:16:28;101095.44;;;-0.31;100.00
47054;BME280;32811;52.382;5.270;2023-12-04T04:18:57;101085.75;;;-0.38;100.00
47054;BME280;32811;52.382;5.270;2023-12-04T04:21:24;101095.47;;;-0.29;100.00
47054;BME280;32811;52.382;5.270;2023-12-04T04:23:51;101079.00;;;-0.37;100.00
47054;BME280;32811;52.382;5.270;2023-12-04T04:26:21;101082.56;;;-0.34;100.00
47054;BME280;32811;52.382;5.270;2023-12-04T04:28:47;101054.13;;;-0.45;100.00
47054;BME280;32811;52.382;5.270;2023-12-04T04:31:14;101074.34;;;-0.30;100.00
47054;BME280;32811;52.382;5.270;2023-12-04T04:33:42;101069.34;;;-0.28;100.00
47054;BME280;32811;52.382;5.270;2023-12-04T04:36:09;101079.50;;;-0.28;100.00
47054;BME280;32811;52.382;5.270;2023-12-04T04:38:36;101072.75;;;-0.28;100.00
47054;BME280;32811;52.382;5.270;2023-12-04T04:41:05;101070.94;;;-0.30;100.00
47054;BME280;32811;52.382;5.270;2023-12-04T04:43:36;101070.31;;;-0.26;100.00
47054;BME280;32811;52.382;5.270;2023-12-04T04:46:04;101072.88;;;-0.25;100.00
47054;BME280;32811;52.382;5.270;2023-12-04T04:48:32;101069.44;;;-0.27;100.00
47054;BME280;32811;52.382;5.270;2023-12-04T04:50:59;101066.09;;;-0.26;100.00
47054;BME280;32811;52.382;5.270;2023-12-04T04:53:26;101053.25;;;-0.29;100.00
47054;BME280;32811;52.382;5.270;2023-12-04T04:55:54;101042.16;;;-0.31;100.00
47054;BME280;32811;52.382;5.270;2023-12-04T04:58:20;101046.38;;;-0.31;100.00
47054;BME280;32811;52.382;5.270;2023-12-04T05:00:47;101053.72;;;-0.19;100.00
47054;BME280;32811;52.382;5.270;2023-12-04T05:03:16;101044.34;;;-0.21;100.00
47054;BME280;32811;52.382;5.270;2023-12-04T05:05:42;101045.16;;;-0.22;100.00
47054;BME280;32811;52.382;5.270;2023-12-04T05:08:09;101040.25;;;-0.18;100.00
47054;BME280;32811;52.382;5.270;2023-12-04T05:10:38;101035.13;;;-0.20;100.00
47054;BME280;32811;52.382;5.270;2023-12-04T05:13:05;101034.22;;;-0.21;100.00
47054;BME280;32811;52.382;5.270;2023-12-04T05:15:32;101037.66;;;-0.20;100.00
47054;BME280;32811;52.382;5.270;2023-12-04T05:17:58;101025.50;;;-0.26;100.00
47054;BME280;32811;52.382;5.270;2023-12-04T05:20:25;101034.53;;;-0.14;100.00
47054;BME280;32811;52.382;5.270;2023-12-04T05:22:53;101037.78;;;-0.17;100.00
47054;BME280;32811;52.382;5.270;2023-12-04T05:25:20;101024.88;;;-0.22;100.00
47054;BME280;32811;52.382;5.270;2023-12-04T05:27:47;101026.78;;;-0.17;100.00
47054;BME280;32811;52.382;5.270;2023-12-04T05:30:15;101015.69;;;-0.19;100.00
47054;BME280;32811;52.382;5.270;2023-12-04T05:32:42;101023.66;;;-0.12;100.00
47054;BME280;32811;52.382;5.270;2023-12-04T05:35:09;100989.84;;;-0.29;100.00
47054;BME280;32811;52.382;5.270;2023-12-04T05:37:36;101013.38;;;-0.15;100.00
47054;BME280;32811;52.382;5.270;2023-12-04T05:40:03;101016.69;;;-0.16;100.00
47054;BME280;32811;52.382;5.270;2023-12-04T05:42:31;100997.84;;;-0.21;100.00
47054;BME280;32811;52.382;5.270;2023-12-04T05:44:58;100992.53;;;-0.26;100.00
47054;BME280;32811;52.382;5.270;2023-12-04T05:47:26;101003.47;;;-0.10;100.00
47054;BME280;32811;52.382;5.270;2023-12-04T05:49:52;101001.88;;;-0.08;100.00
47054;BME280;32811;52.382;5.270;2023-12-04T05:52:19;100997.03;;;-0.04;100.00
47054;BME280;32811;52.382;5.270;2023-12-04T05:54:46;100990.91;;;-0.07;100.00
47054;BME280;32811;52.382;5.270;2023-12-04T05:57:12;100993.69;;;-0.03;100.00
47054;BME280;32811;52.382;5.270;2023-12-04T05:59:39;100982.66;;;-0.03;100.00
47054;BME280;32811;52.382;5.270;2023-12-04T06:02:06;100985.69;;;-0.10;100.00
47054;BME280;32811;52.382;5.270;2023-12-04T06:04:33;100991.63;;;-0.10;100.00
47054;BME280;32811;52.382;5.270;2023-12-04T06:06:59;100985.69;;;-0.10;100.00
47054;BME280;32811;52.382;5.270;2023-12-04T06:09:26;100976.91;;;-0.17;100.00
47054;BME280;32811;52.382;5.270;2023-12-04T06:11:53;100982.53;;;-0.06;100.00
47054;BME280;32811;52.382;5.270;2023-12-04T06:14:19;100981.22;;;0.02;100.00
47054;BME280;32811;52.382;5.270;2023-12-04T06:16:46;100970.63;;;-0.07;100.00
47054;BME280;32811;52.382;5.270;2023-12-04T06:19:13;100971.56;;;-0.05;100.00
47054;BME280;32811;52.382;5.270;2023-12-04T06:21:40;100974.03;;;-0.07;100.00
47054;BME280;32811;52.382;5.270;2023-12-04T06:24:07;100973.16;;;-0.07;100.00
47054;BME280;32811;52.382;5.270;2023-12-04T06:26:36;100972.38;;;-0.06;100.00
47054;BME280;32811;52.382;5.270;2023-12-04T06:29:07;100983.47;;;-0.04;100.00
47054;BME280;32811;52.382;5.270;2023-12-04T06:31:34;100974.91;;;-0.06;100.00
47054;BME280;32811;52.382;5.270;2023-12-04T06:34:01;100968.88;;;-0.08;100.00
47054;BME280;32811;52.382;5.270;2023-12-04T06:36:31;100960.69;;;-0.03;100.00
47054;BME280;32811;52.382;5.270;2023-12-04T06:39:02;100942.44;;;-0.13;100.00
47054;BME280;32811;52.382;5.270;2023-12-04T06:41:31;100956.19;;;-0.08;100.00
47054;BME280;32811;52.382;5.270;2023-12-04T06:43:57;100950.91;;;-0.13;100.00
47054;BME280;32811;52.382;5.270;2023-12-04T06:46:27;100952.00;;;-0.08;100.00
47054;BME280;32811;52.382;5.270;2023-12-04T06:48:58;100935.91;;;-0.08;100.00
47054;BME280;32811;52.382;5.270;2023-12-04T06:51:25;100945.56;;;-0.01;100.00
47054;BME280;32811;52.382;5.270;2023-12-04T06:53:52;100940.69;;;0.04;100.00
47054;BME280;32811;52.382;5.270;2023-12-04T06:56:19;100928.31;;;0.10;100.00
47054;BME280;32811;52.382;5.270;2023-12-04T06:58:46;100929.69;;;0.03;100.00
47054;BME280;32811;52.382;5.270;2023-12-04T07:01:13;100931.28;;;0.01;100.00
47054;BME280;32811;52.382;5.270;2023-12-04T07:03:40;100935.47;;;0.01;100.00
47054;BME280;32811;52.382;5.270;2023-12-04T07:06:07;100925.03;;;-0.06;100.00
47054;BME280;32811;52.382;5.270;2023-12-04T07:08:33;100925.13;;;-0.04;100.00
47054;BME280;32811;52.382;5.270;2023-12-04T07:11:00;100906.53;;;-0.03;100.00
47054;BME280;32811;52.382;5.270;2023-12-04T07:13:27;100921.13;;;0.01;100.00
47054;BME280;32811;52.382;5.270;2023-12-04T07:15:53;100908.31;;;-0.02;100.00
47054;BME280;32811;52.382;5.270;2023-12-04T07:18:20;100916.41;;;0.09;100.00
47054;BME280;32811;52.382;5.270;2023-12-04T07:20:47;100900.09;;;0.04;100.00
47054;BME280;32811;52.382;5.270;2023-12-04T07:23:14;100904.66;;;0.11;100.00
47054;BME280;32811;52.382;5.270;2023-12-04T07:25:41;100895.25;;;0.08;100.00
47054;BME280;32811;52.382;5.270;2023-12-04T07:28:08;100903.16;;;0.14;100.00
47054;BME280;32811;52.382;5.270;2023-12-04T07:30:34;100889.59;;;0.14;100.00
47054;BME280;32811;52.382;5.270;2023-12-04T07:33:01;100895.09;;;0.05;100.00
47054;BME280;32811;52.382;5.270;2023-12-04T07:35:28;100888.28;;;0.04;100.00
47054;BME280;32811;52.382;5.270;2023-12-04T07:37:55;100881.47;;;0.03;100.00
47054;BME280;32811;52.382;5.270;2023-12-04T07:40:21;100879.78;;;0.04;100.00
47054;BME280;32811;52.382;5.270;2023-12-04T07:42:49;100885.69;;;0.03;100.00
47054;BME280;32811;52.382;5.270;2023-12-04T07:45:16;100894.47;;;0.09;100.00
47054;BME280;32811;52.382;5.270;2023-12-04T07:47:43;100895.41;;;0.11;100.00
47054;BME280;32811;52.382;5.270;2023-12-04T07:50:10;100897.00;;;0.09;100.00
47054;BME280;32811;52.382;5.270;2023-12-04T07:52:36;100899.44;;;0.08;100.00
47054;BME280;32811;52.382;5.270;2023-12-04T07:55:03;100886.69;;;0.06;100.00
47054;BME280;32811;52.382;5.270;2023-12-04T07:57:30;100895.53;;;0.14;100.00
47054;BME280;32811;52.382;5.270;2023-12-04T07:59:57;100878.41;;;0.10;100.00
47054;BME280;32811;52.382;5.270;2023-12-04T08:02:24;100883.78;;;0.16;100.00
47054;BME280;32811;52.382;5.270;2023-12-04T08:04:51;100888.88;;;0.16;100.00
47054;BME280;32811;52.382;5.270;2023-12-04T08:07:17;100878.41;;;0.10;100.00
47054;BME280;32811;52.382;5.270;2023-12-04T08:09:44;100881.03;;;0.12;100.00
47054;BME280;32811;52.382;5.270;2023-12-04T08:12:10;100871.63;;;0.09;100.00
47054;BME280;32811;52.382;5.270;2023-12-04T08:14:37;100883.78;;;0.16;100.00
47054;BME280;32811;52.382;5.270;2023-12-04T08:17:04;100878.41;;;0.10;100.00
47054;BME280;32811;52.382;5.270;2023-12-04T08:19:31;100884.56;;;0.15;100.00
47054;BME280;32811;52.382;5.270;2023-12-04T08:21:58;100870.50;;;0.22;100.00
47054;BME280;32811;52.382;5.270;2023-12-04T08:24:25;100868.84;;;0.23;100.00
47054;BME280;32811;52.382;5.270;2023-12-04T08:26:51;100868.13;;;0.25;100.00
47054;BME280;32811;52.382;5.270;2023-12-04T08:29:18;100879.28;;;0.29;100.00
47054;BME280;32811;52.382;5.270;2023-12-04T08:31:45;100862.09;;;0.23;100.00
47054;BME280;32811;52.382;5.270;2023-12-04T08:34:11;100867.47;;;0.29;100.00
47054;BME280;32811;52.382;5.270;2023-12-04T08:36:38;100875.13;;;0.31;100.00
47054;BME280;32811;52.382;5.270;2023-12-04T08:39:12;100874.34;;;0.32;100.00
47054;BME280;32811;52.382;5.270;2023-12-04T08:41:39;100863.56;;;0.36;100.00
47054;BME280;32811;52.382;5.270;2023-12-04T08:44:16;100864.63;;;0.41;100.00
47054;BME280;32811;52.382;5.270;2023-12-04T08:46:44;100859.53;;;0.41;100.00
47054;BME280;32811;52.382;5.270;2023-12-04T08:49:10;100851.06;;;0.40;100.00
47054;BME280;32811;52.382;5.270;2023-12-04T08:51:37;100849.97;;;0.35;100.00
47054;BME280;32811;52.382;5.270;2023-12-04T08:54:04;100852.59;;;0.37;100.00
47054;BME280;32811;52.382;5.270;2023-12-04T08:56:43;100849.22;;;0.38;100.00
47054;BME280;32811;52.382;5.270;2023-12-04T08:59:11;100840.28;;;0.46;100.00
47054;BME280;32811;52.382;5.270;2023-12-04T09:01:39;100835.97;;;0.44;100.00
47054;BME280;32811;52.382;5.270;2023-12-04T09:04:08;100846.31;;;0.48;100.00
47054;BME280;32811;52.382;5.270;2023-12-04T09:06:36;100842.19;;;0.50;100.00
47054;BME280;32811;52.382;5.270;2023-12-04T09:09:05;100837.75;;;0.46;100.00
47054;BME280;32811;52.382;5.270;2023-12-04T09:11:41;100818.91;;;0.41;100.00
47054;BME280;32811;52.382;5.270;2023-12-04T09:14:09;100835.09;;;0.43;100.00
47054;BME280;32811;52.382;5.270;2023-12-04T09:16:35;100841.78;;;0.41;100.00
47054;BME280;32811;52.382;5.270;2023-12-04T09:19:02;100841.56;;;0.36;100.00
47054;BME280;32811;52.382;5.270;2023-12-04T09:21:29;100837.44;;;0.38;100.00
47054;BME280;32811;52.382;5.270;2023-12-04T09:23:56;100840.00;;;0.40;100.00
47054;BME280;32811;52.382;5.270;2023-12-04T09:26:22;100832.56;;;0.43;100.00
47054;BME280;32811;52.382;5.270;2023-12-04T09:28:49;100840.94;;;0.42;100.00
47054;BME280;32811;52.382;5.270;2023-12-04T09:31:17;100836.16;;;0.48;100.00
47054;BME280;32811;52.382;5.270;2023-12-04T09:33:45;100831.22;;;0.51;100.00
47054;BME280;32811;52.382;5.270;2023-12-04T09:36:11;100832.03;;;0.50;100.00
47054;BME280;32811;52.382;5.270;2023-12-04T09:38:38;100833.38;;;0.61;100.00
47054;BME280;32811;52.382;5.270;2023-12-04T09:41:06;100825.94;;;0.66;100.00
47054;BME280;32811;52.382;5.270;2023-12-04T09:43:33;100824.34;;;0.68;100.00
47054;BME280;32811;52.382;5.270;2023-12-04T09:46:00;100826.88;;;0.68;100.00
47054;BME280;32811;52.382;5.270;2023-12-04T09:48:28;100824.00;;;0.80;100.00
47054;BME280;32811;52.382;5.270;2023-12-04T09:50:57;100825.09;;;0.85;100.00
47054;BME280;32811;52.382;5.270;2023-12-04T09:53:26;100814.13;;;0.86;100.00
47054;BME280;32811;52.382;5.270;2023-12-04T09:55:57;100819.41;;;0.91;100.00
47054;BME280;32811;52.382;5.270;2023-12-04T09:58:27;100802.06;;;0.82;100.00
47054;BME280;32811;52.382;5.270;2023-12-04T10:00:56;100812.78;;;0.94;100.00
47054;BME280;32811;52.382;5.270;2023-12-04T10:03:24;100807.06;;;1.00;100.00
47054;BME280;32811;52.382;5.270;2023-12-04T10:05:51;100806.47;;;1.06;100.00
47054;BME280;32811;52.382;5.270;2023-12-04T10:08:19;100801.25;;;1.02;100.00
47054;BME280;32811;52.382;5.270;2023-12-04T10:10:46;100806.75;;;1.12;100.00
47054;BME280;32811;52.382;5.270;2023-12-04T10:13:13;100799.44;;;1.00;100.00
47054;BME280;32811;52.382;5.270;2023-12-04T10:15:59;100794.94;;;1.14;100.00
47054;BME280;32811;52.382;5.270;2023-12-04T10:18:27;100790.31;;;1.24;100.00
47054;BME280;32811;52.382;5.270;2023-12-04T10:20:57;100787.75;;;1.24;100.00
47054;BME280;32811;52.382;5.270;2023-12-04T10:26:05;100785.38;;;1.28;100.00
47054;BME280;32811;52.382;5.270;2023-12-04T10:28:31;100777.38;;;1.18;100.00
47054;BME280;32811;52.382;5.270;2023-12-04T10:30:58;100775.69;;;1.19;100.00
47054;BME280;32811;52.382;5.270;2023-12-04T10:33:25;100775.13;;;1.26;100.00
47054;BME280;32811;52.382;5.270;2023-12-04T10:35:55;100774.44;;;1.30;100.00
47054;BME280;32811;52.382;5.270;2023-12-04T10:38:24;100773.06;;;1.38;100.00
47054;BME280;32811;52.382;5.270;2023-12-04T10:40:53;100758.06;;;1.44;100.00
47054;BME280;32811;52.382;5.270;2023-12-04T10:43:21;100759.94;;;1.49;100.00
47054;BME280;32811;52.382;5.270;2023-12-04T10:45:49;100754.25;;;1.56;100.00
47054;BME280;32811;52.382;5.270;2023-12-04T10:48:17;100754.16;;;1.53;100.00
47054;BME280;32811;52.382;5.270;2023-12-04T10:50:47;100750.28;;;1.62;100.00
47054;BME280;32811;52.382;5.270;2023-12-04T10:53:16;100735.78;;;1.60;100.00
47054;BME280;32811;52.382;5.270;2023-12-04T10:55:43;100734.06;;;1.59;100.00
47054;BME280;32811;52.382;5.270;2023-12-04T10:58:14;100726.59;;;1.63;100.00
47054;BME280;32811;52.382;5.270;2023-12-04T11:00:46;100726.09;;;1.72;100.00
47054;BME280;32811;52.382;5.270;2023-12-04T11:03:20;100714.09;;;1.70;100.00
47054;BME280;32811;52.382;5.270;2023-12-04T11:05:55;100712.72;;;1.78;100.00
47054;BME280;32811;52.382;5.270;2023-12-04T11:08:22;100706.06;;;1.81;100.00
47054;BME280;32811;52.382;5.270;2023-12-04T11:13:29;100699.03;;;1.74;100.00
47054;BME280;32811;52.382;5.270;2023-12-04T11:16:00;100694.16;;;1.80;100.00
47054;BME280;32811;52.382;5.270;2023-12-04T11:18:30;100694.28;;;1.83;100.00
47054;BME280;32811;52.382;5.270;2023-12-04T11:20:59;100695.75;;;1.78;100.00
47054;BME280;32811;52.382;5.270;2023-12-04T11:23:29;100674.53;;;1.78;100.00
47054;BME280;32811;52.382;5.270;2023-12-04T11:25:58;100677.78;;;1.74;100.00
47054;BME280;32811;52.382;5.270;2023-12-04T11:28:27;100685.25;;;1.69;100.00
47054;BME280;32811;52.382;5.270;2023-12-04T11:30:55;100683.69;;;1.73;100.00
47054;BME280;32811;52.382;5.270;2023-12-04T11:33:21;100677.63;;;1.69;100.00
47054;BME280;32811;52.382;5.270;2023-12-04T11:35:50;100666.50;;;1.67;100.00
47054;BME280;32811;52.382;5.270;2023-12-04T11:38:17;100672.41;;;1.66;100.00
47054;BME280;32811;52.382;5.270;2023-12-04T11:40:46;100677.56;;;1.68;100.00
47054;BME280;32811;52.382;5.270;2023-12-04T11:43:24;100669.88;;;1.66;100.00
47054;BME280;32811;52.382;5.270;2023-12-04T11:45:52;100666.16;;;1.58;100.00
47054;BME280;32811;52.382;5.270;2023-12-04T11:48:25;100669.56;;;1.58;100.00
47054;BME280;32811;52.382;5.270;2023-12-04T11:50:52;100655.47;;;1.44;100.00
47054;BME280;32811;52.382;5.270;2023-12-04T11:53:18;100661.50;;;1.46;100.00
47054;BME280;32811;52.382;5.270;2023-12-04T11:55:46;100653.44;;;1.35;100.00
47054;BME280;32811;52.382;5.270;2023-12-04T11:58:12;100658.47;;;1.34;100.00
47054;BME280;32811;52.382;5.270;2023-12-04T12:00:41;100641.16;;;1.25;100.00
47054;BME280;32811;52.382;5.270;2023-12-04T12:03:09;100648.94;;;1.28;100.00
47054;BME280;32811;52.382;5.270;2023-12-04T12:05:49;100644.53;;;1.24;100.00
47054;BME280;32811;52.382;5.270;2023-12-04T12:08:19;100647.31;;;1.30;100.00
47054;BME280;32811;52.382;5.270;2023-12-04T12:10:46;100645.47;;;1.26;100.00
47054;BME280;32811;52.382;5.270;2023-12-04T12:13:14;100642.06;;;1.26;100.00
47054;BME280;32811;52.382;5.270;2023-12-04T12:15:41;100633.69;;;1.28;100.00
47054;BME280;32811;52.382;5.270;2023-12-04T12:18:07;100637.16;;;1.30;100.00
47054;BME280;32811;52.382;5.270;2023-12-04T12:20:36;100633.50;;;1.23;100.00
47054;BME280;32811;52.382;5.270;2023-12-04T12:23:03;100621.66;;;1.24;100.00
47054;BME280;32811;52.382;5.270;2023-12-04T12:25:29;100624.19;;;1.24;100.00
47054;BME280;32811;52.382;5.270;2023-12-04T12:27:56;100627.91;;;1.32;100.00
47054;BME280;32811;52.382;5.270;2023-12-04T12:30:23;100627.00;;;1.32;100.00
47054;BME280;32811;52.382;5.270;2023-12-04T12:32:50;100618.53;;;1.31;100.00
47054;BME280;32811;52.382;5.270;2023-12-04T12:35:18;100622.06;;;1.35;100.00
47054;BME280;32811;52.382;5.270;2023-12-04T12:37:45;100619.53;;;1.35;100.00
47054;BME280;32811;52.382;5.270;2023-12-04T12:40:12;100619.59;;;1.36;100.00
47054;BME280;32811;52.382;5.270;2023-12-04T12:42:40;100614.38;;;1.33;100.00
47054;BME280;32811;52.382;5.270;2023-12-04T12:45:10;100607.69;;;1.35;100.00
47054;BME280;32811;52.382;5.270;2023-12-04T12:47:44;100610.97;;;1.33;100.00
47054;BME280;32811;52.382;5.270;2023-12-04T12:50:14;100611.13;;;1.37;100.00
47054;BME280;32811;52.382;5.270;2023-12-04T12:52:42;100604.19;;;1.33;100.00
47054;BME280;32811;52.382;5.270;2023-12-04T12:55:09;100596.66;;;1.35;100.00
47054;BME280;32811;52.382;5.270;2023-12-04T12:57:36;100591.72;;;1.39;100.00
47054;BME280;32811;52.382;5.270;2023-12-04T13:00:04;100591.72;;;1.39;100.00